createdAt,value
2023-04-08T00:04:43.059Z,99.89
2023-04-08T00:09:44.976Z,100.00
2023-04-08T00:14:46.848Z,100.00
2023-04-08T00:19:48.442Z,100.00
2023-04-08T00:24:50.113Z,99.25
2023-04-08T00:29:51.833Z,99.34
2023-04-08T00:34:54.074Z,99.26
2023-04-08T00:39:55.706Z,99.60
2023-04-08T00:44:57.658Z,99.38
2023-04-08T00:49:59.578Z,99.66
2023-04-08T00:55:01.273Z,99.03
2023-04-08T01:00:05.928Z,99.46
2023-04-08T01:05:15.745Z,98.71
2023-04-08T01:10:24.827Z,99.27
2023-04-08T01:15:29.032Z,99.07
2023-04-08T01:20:31.079Z,98.69
2023-04-08T01:25:35.192Z,98.62
2023-04-08T01:30:39.771Z,99.02
2023-04-08T01:35:41.814Z,99.95
2023-04-08T01:40:44.684Z,99.68
2023-04-08T01:45:49.239Z,99.06
2023-04-08T01:50:52.043Z,99.28
2023-04-08T01:55:58.631Z,99.57
2023-04-08T02:01:01.042Z,99.27
2023-04-08T02:06:02.677Z,98.84
2023-04-08T02:11:04.504Z,97.72
2023-04-08T02:16:18.572Z,98.01
2023-04-08T02:21:27.068Z,98.44
2023-04-08T02:26:28.781Z,98.37
2023-04-08T02:31:33.198Z,97.97
2023-04-08T02:36:35.235Z,98.08
2023-04-08T02:41:38.453Z,99.29
2023-04-08T02:46:40.333Z,99.36
2023-04-08T02:51:42.009Z,100.00
2023-04-08T02:56:43.977Z,100.00
2023-04-08T03:01:45.830Z,100.00
2023-04-08T03:06:47.467Z,100.00
2023-04-08T03:11:53.175Z,100.00
2023-04-08T03:16:54.916Z,100.00
2023-04-08T03:21:56.601Z,100.00
2023-04-08T03:26:58.285Z,100.00
2023-04-08T03:32:00.026Z,99.67
2023-04-08T03:37:02.064Z,99.63
2023-04-08T03:42:03.882Z,98.73
2023-04-08T03:47:05.606Z,97.73
2023-04-08T03:52:07.332Z,96.84
2023-04-08T03:57:08.965Z,96.40
2023-04-08T04:02:10.794Z,95.41
2023-04-08T04:07:12.442Z,95.56
2023-04-08T04:12:16.532Z,95.15
2023-04-08T04:17:18.455Z,94.94
2023-04-08T04:22:20.094Z,94.68
2023-04-08T04:27:21.687Z,94.07
2023-04-08T04:32:23.381Z,93.25
2023-04-08T04:37:26.476Z,92.17
2023-04-08T04:42:28.196Z,91.66
2023-04-08T04:47:32.568Z,91.15
2023-04-08T04:52:36.269Z,90.89
2023-04-08T04:57:37.934Z,90.51
2023-04-08T05:02:39.598Z,89.17
2023-04-08T05:07:41.289Z,88.81
2023-04-08T05:12:42.883Z,88.60
2023-04-08T05:17:44.598Z,88.94
2023-04-08T05:22:46.275Z,88.32
2023-04-08T05:27:47.987Z,87.64
2023-04-08T05:32:49.710Z,88.12
2023-04-08T05:37:51.424Z,86.99
2023-04-08T05:42:53.061Z,87.53
2023-04-08T05:47:54.802Z,87.42
2023-04-08T05:52:56.537Z,86.18
2023-04-08T05:57:58.119Z,86.18
2023-04-08T06:03:00.237Z,85.54
2023-04-08T06:08:02.328Z,84.63
2023-04-08T06:13:04.054Z,85.20
2023-04-08T06:18:05.887Z,84.95
2023-04-08T06:23:08.162Z,85.62
2023-04-08T06:28:09.868Z,85.37
2023-04-08T06:33:11.620Z,84.98
2023-04-08T06:38:13.526Z,84.31
2023-04-08T06:43:15.391Z,84.80
2023-04-08T06:48:17.045Z,84.17
2023-04-08T06:53:18.713Z,84.07
2023-04-08T06:58:20.355Z,82.53
2023-04-08T07:03:22.783Z,81.77
2023-04-08T07:08:24.477Z,81.52
2023-04-08T07:13:26.234Z,81.35
2023-04-08T07:18:29.048Z,81.21
2023-04-08T07:23:30.688Z,80.77
2023-04-08T07:28:32.407Z,80.53
2023-04-08T07:33:34.120Z,79.76
2023-04-08T07:38:35.729Z,78.66
2023-04-08T07:43:37.635Z,78.40
2023-04-08T07:48:39.371Z,77.57
2023-04-08T07:53:40.974Z,76.05
2023-04-08T07:58:42.707Z,73.61
2023-04-08T08:03:45.017Z,72.88
2023-04-08T08:08:46.998Z,72.93
2023-04-08T08:13:48.854Z,72.19
2023-04-08T08:18:50.659Z,70.71
2023-04-08T08:23:53.041Z,71.69
2023-04-08T08:28:55.002Z,71.59
2023-04-08T08:33:56.684Z,72.30
2023-04-08T08:38:58.413Z,70.03
2023-04-08T08:44:00.360Z,68.37
2023-04-08T08:49:02.370Z,69.35
2023-04-08T08:54:04.521Z,69.79
2023-04-08T08:59:06.341Z,68.59
2023-04-08T09:04:10.724Z,68.61
2023-04-08T09:09:13.275Z,70.80
2023-04-08T09:14:25.581Z,69.02
2023-04-08T09:19:27.298Z,69.06
2023-04-08T09:24:30.867Z,66.63
2023-04-08T09:29:35.728Z,66.87
2023-04-08T09:34:40.069Z,67.05
2023-04-08T09:39:41.775Z,65.83
2023-04-08T09:44:45.996Z,65.13
2023-04-08T09:49:55.258Z,65.32
2023-04-08T09:55:06.713Z,63.19
2023-04-08T10:00:13.465Z,60.08
2023-04-08T10:05:18.572Z,59.98
2023-04-08T10:10:21.163Z,57.76
2023-04-08T10:15:33.460Z,60.30
2023-04-08T10:20:35.960Z,59.07
2023-04-08T10:25:39.326Z,58.33
2023-04-08T10:30:47.696Z,56.12
2023-04-08T10:35:54.170Z,58.22
2023-04-08T10:40:55.886Z,56.43
2023-04-08T10:45:57.508Z,55.14
2023-04-08T10:51:03.914Z,54.70
2023-04-08T10:56:15.697Z,53.49
2023-04-08T11:01:28.474Z,50.89
2023-04-08T11:06:36.878Z,50.00
2023-04-08T11:11:38.806Z,49.52
2023-04-08T11:16:40.871Z,48.06
2023-04-08T11:21:42.727Z,48.49
2023-04-08T11:26:44.543Z,50.14
2023-04-08T11:31:47.516Z,48.01
2023-04-08T11:36:50.143Z,48.50
2023-04-08T11:41:51.814Z,46.23
2023-04-08T11:46:55.631Z,41.89
2023-04-08T11:51:59.569Z,44.60
2023-04-08T11:57:03.040Z,44.24
2023-04-08T12:02:04.798Z,45.73
2023-04-08T12:07:06.566Z,44.22
2023-04-08T12:12:08.226Z,45.76
2023-04-08T12:17:09.844Z,46.27
2023-04-08T12:22:11.781Z,43.99
2023-04-08T12:27:13.425Z,43.78
2023-04-08T12:32:15.165Z,43.14
2023-04-08T12:37:16.920Z,42.39
2023-04-08T12:42:18.806Z,42.98
2023-04-08T12:47:20.471Z,42.89
2023-04-08T12:52:22.193Z,41.19
2023-04-08T12:57:23.793Z,43.14
2023-04-08T13:02:27.295Z,43.50
2023-04-08T13:07:29.139Z,42.43
2023-04-08T13:12:32.086Z,42.62
2023-04-08T13:17:37.306Z,43.43
2023-04-08T13:22:38.975Z,43.61
2023-04-08T13:27:41.256Z,45.42
2023-04-08T13:32:43.005Z,44.27
2023-04-08T13:37:44.761Z,44.11
2023-04-08T13:42:46.707Z,44.59
2023-04-08T13:47:48.343Z,44.54
2023-04-08T13:52:49.997Z,45.58
2023-04-08T13:57:51.581Z,45.41
2023-04-08T14:02:53.346Z,46.57
2023-04-08T14:07:55.353Z,44.83
2023-04-08T14:12:57.059Z,46.46
2023-04-08T14:17:58.727Z,44.88
2023-04-08T14:23:00.410Z,43.63
2023-04-08T14:28:02.016Z,43.61
2023-04-08T14:33:05.361Z,46.36
2023-04-08T14:38:07.190Z,46.64
2023-04-08T14:43:08.929Z,44.54
2023-04-08T14:48:11.300Z,41.31
2023-04-08T14:53:12.949Z,40.78
2023-04-08T14:58:14.600Z,41.71
2023-04-08T15:03:18.051Z,40.69
2023-04-08T15:08:30.766Z,41.27
2023-04-08T15:13:32.498Z,44.09
2023-04-08T15:18:34.158Z,43.53
2023-04-08T15:23:35.903Z,45.16
2023-04-08T15:28:38.228Z,45.69
2023-04-08T15:33:41.485Z,47.22
2023-04-08T15:38:43.253Z,48.85
2023-04-08T15:43:46.200Z,49.05
2023-04-08T15:48:48.521Z,49.54
2023-04-08T15:53:51.695Z,49.98
2023-04-08T15:58:53.583Z,50.77
2023-04-08T16:03:55.633Z,49.95
2023-04-08T16:08:57.818Z,51.93
2023-04-08T16:13:59.480Z,51.10
2023-04-08T16:19:02.262Z,52.46
2023-04-08T16:24:05.689Z,53.01
2023-04-08T16:29:07.552Z,54.46
2023-04-08T16:34:09.197Z,55.07
2023-04-08T16:39:11.092Z,56.51
2023-04-08T16:44:12.868Z,56.20
2023-04-08T16:49:16.219Z,56.00
2023-04-08T16:54:19.337Z,57.82
2023-04-08T16:59:21.210Z,56.89
2023-04-08T17:04:22.928Z,54.98
2023-04-08T17:09:24.817Z,55.86
2023-04-08T17:14:27.752Z,56.06
2023-04-08T17:19:29.434Z,54.60
2023-04-08T17:24:31.091Z,57.14
2023-04-08T17:29:32.820Z,59.85
2023-04-08T17:34:43.701Z,62.04
2023-04-08T17:39:46.482Z,64.32
2023-04-08T17:44:48.547Z,64.67
2023-04-08T17:49:50.286Z,65.73
2023-04-08T17:54:51.875Z,66.40
2023-04-08T17:59:53.478Z,67.37
2023-04-08T18:04:59.521Z,69.32
2023-04-08T18:10:01.261Z,70.16
2023-04-08T18:15:03.279Z,69.12
2023-04-08T18:20:05.522Z,69.11
2023-04-08T18:25:07.494Z,70.27
2023-04-08T18:30:09.513Z,70.99
2023-04-08T18:35:11.265Z,70.73
2023-04-08T18:40:13.175Z,70.42
2023-04-08T18:45:14.816Z,70.97
2023-04-08T18:50:16.575Z,71.63
2023-04-08T18:55:18.570Z,71.93
2023-04-08T19:00:20.365Z,72.13
2023-04-08T19:05:22.103Z,72.69
2023-04-08T19:10:24.763Z,72.62
2023-04-08T19:15:26.880Z,73.10
2023-04-08T19:20:28.612Z,73.13
2023-04-08T19:25:30.683Z,73.79
2023-04-08T19:30:38.927Z,74.17
2023-04-08T19:35:41.019Z,74.49
2023-04-08T19:40:42.707Z,75.25
2023-04-08T19:45:44.780Z,76.41
2023-04-08T19:50:46.354Z,76.94
2023-04-08T19:55:48.017Z,76.93
2023-04-08T20:00:49.583Z,77.14
2023-04-08T20:05:51.166Z,77.89
2023-04-08T20:10:53.973Z,78.85
2023-04-08T20:15:55.565Z,79.31
2023-04-08T20:20:57.291Z,79.14
2023-04-08T20:25:59.556Z,79.35
2023-04-08T20:31:01.834Z,79.78
2023-04-08T20:36:04.800Z,80.13
2023-04-08T20:41:07.168Z,80.35
2023-04-08T20:46:09.239Z,79.89
2023-04-08T20:51:10.864Z,80.31
2023-04-08T20:56:12.509Z,80.83
2023-04-08T21:01:15.064Z,80.74
2023-04-08T21:11:22.545Z,81.01
2023-04-08T21:16:25.251Z,81.37
2023-04-08T21:21:28.410Z,81.48
2023-04-08T21:26:30.021Z,81.44
2023-04-08T21:31:31.861Z,82.64
2023-04-08T21:36:33.827Z,82.42
2023-04-08T21:41:35.454Z,82.88
2023-04-08T21:46:37.100Z,83.12
2023-04-08T21:51:39.435Z,84.00
2023-04-08T21:56:41.065Z,84.40
2023-04-08T22:01:42.705Z,84.54
2023-04-08T22:06:44.680Z,85.32
2023-04-08T22:11:46.519Z,85.28
2023-04-08T22:16:48.176Z,85.79
2023-04-08T22:21:52.735Z,87.17
2023-04-08T22:26:54.562Z,87.69
2023-04-08T22:31:56.242Z,88.26
2023-04-08T22:36:58.496Z,88.25
2023-04-08T22:42:01.073Z,88.13
2023-04-08T22:47:02.770Z,88.83
2023-04-08T22:52:04.498Z,88.60
2023-04-08T22:57:06.506Z,88.50
2023-04-08T23:02:08.260Z,89.06
2023-04-08T23:07:10.022Z,89.82
2023-04-08T23:12:11.733Z,89.92
2023-04-08T23:17:13.331Z,90.58
2023-04-08T23:22:14.977Z,90.23
2023-04-08T23:27:16.613Z,90.25
2023-04-08T23:32:18.392Z,90.75
2023-04-08T23:37:20.913Z,90.52
2023-04-08T23:42:27.087Z,91.03
2023-04-08T23:47:30.889Z,90.99
2023-04-08T23:52:32.684Z,91.21
2023-04-08T23:57:34.263Z,91.47
